Sears, Michigan
Current Conditions -  °F | °C
As of 11:55 AM on Monday 22 Dec 2014 (Local Time) from KRQB Reporting Station
Haze Haze  
Wind Chill: -5°   Ceiling: Unl
Heat Index:   Visibility: 5mi
Dew Point: -2°   Wind: 14mph
Humidity: 84%   Direction: 130°SE
Pressure: 29.97"   Gusts: NA
Location:  43.9°N, 85.18°W
Report Text: KRQB 221655Z AUTO 13012KT 5SM HZ CLR 01/M02 A2997 RMK AO2 T00051020
Loading
Personal Weather Stations






























Interactive Weather Map New forecast layout! Learn more

10-Day Weather Forecast

Advertisements
Track Severe Weather on mobile